Flight Track Log - Related Links

Times and Time Zones

All times are in EDT time to prevent confusion due to time zone crossing. See the SWA286 flight status page for this flight to view local times or setup timezone preferences in your user account.

Time Position Orientation Groundspeed Altitude Reporting Facility
EDT Latitude Longitude Course Direction KTS MPH feet Rate Location/Type
Sat 10:48:11 AM 32.8000 -96.7833 128° Southeast 234 269 3,300  Level Dallas / Fort Worth TRACON
Sat 10:48:11 AM 32.8000 -96.7833 128° Southeast 234 269 3,300 2,700 Level Dallas / Fort Worth TRACON
Sat 10:49:11 AM 32.7500 -96.7333 140° Southeast 272 313 6,000 2,700 Climbing Dallas / Fort Worth TRACON
Sat 10:49:11 AM 32.7500 -96.7333 140° Southeast 272 313 6,000 2,243 Level Dallas / Fort Worth TRACON
Sat 10:50:58 AM 32.6317 -96.8189 211° Southwest 331 381 10,000 2,243 Climbing Fort Worth Center
Sat 10:50:58 AM 32.6317 -96.8189 211° Southwest 331 381 10,000 2,400 Level Fort Worth Center
Sat 10:51:58 AM 32.5903 -96.9203 244° Southwest 344 396 12,400 2,400 Climbing Fort Worth Center
Sat 10:51:58 AM 32.5903 -96.9203 244° Southwest 344 396 12,400 2,600 Level Fort Worth Center
Sat 10:52:58 AM 32.6031 -97.0336 278° West 333 383 15,000 2,600 Climbing Fort Worth Center
Sat 10:52:58 AM 32.6031 -97.0336 278° West 333 383 15,000 2,500 Level Fort Worth Center
Sat 10:53:58 AM 32.6203 -97.1519 280° West 365 420 17,500 2,500 Climbing Fort Worth Center
Sat 10:53:58 AM 32.6203 -97.1519 280° West 365 420 17,500 2,200 Level Fort Worth Center
Sat 10:54:58 AM 32.6350 -97.2778 278° West 379 436 19,700 2,200 Climbing Fort Worth Center
Sat 10:54:58 AM 32.6350 -97.2778 278° West 379 436 19,700 1,800 Level Fort Worth Center
Sat 10:55:58 AM 32.6517 -97.4011 279° West 384 442 21,500 1,800 Climbing Fort Worth Center
Sat 10:55:58 AM 32.6517 -97.4011 279° West 384 442 21,500 1,500 Level Fort Worth Center
Sat 10:56:58 AM 32.6558 -97.5319 272° West 396 456 23,000 1,500 Climbing Fort Worth Center
Sat 10:56:58 AM 32.6558 -97.5319 272° West 396 456 23,000 1,400 Level Fort Worth Center
Sat 10:57:58 AM 32.6472 -97.6750 266° West 412 474 24,400 1,400 Climbing Fort Worth Center
Sat 10:57:58 AM 32.6472 -97.6750 266° West 412 474 24,400 1,300 Level Fort Worth Center
Sat 10:58:58 AM 32.6386 -97.8131 266° West 425 489 25,700 1,300 Climbing Fort Worth Center
Sat 10:58:58 AM 32.6386 -97.8131 266° West 425 489 25,700 1,400 Level Fort Worth Center
Sat 10:59:58 AM 32.6275 -97.9561 265° West 430 495 27,100 1,400 Climbing Fort Worth Center
Sat 10:59:58 AM 32.6275 -97.9561 265° West 430 495 27,100 1,100 Level Fort Worth Center
Sat 11:00:58 AM 32.6186 -98.1042 266° West 437 503 28,200 1,100 Climbing Fort Worth Center
Sat 11:00:58 AM 32.6186 -98.1042 266° West 437 503 28,200 1,200 Level Fort Worth Center
Sat 11:01:58 AM 32.6072 -98.2544 265° West 450 518 29,400 1,200 Climbing Fort Worth Center
Sat 11:01:58 AM 32.6072 -98.2544 265° West 450 518 29,400 1,300 Level Fort Worth Center
Sat 11:02:58 AM 32.5956 -98.4047 265° West 455 524 30,700 1,300 Climbing Fort Worth Center
Sat 11:02:58 AM 32.5956 -98.4047 265° West 455 524 30,700 1,300 Level Fort Worth Center
Sat 11:03:58 AM 32.5842 -98.5303 264° West 455 524 32,000 1,300 Climbing Fort Worth Center
Sat 11:03:58 AM 32.5842 -98.5303 264° West 455 524 32,000 1,200 Level Fort Worth Center
Sat 11:04:58 AM 32.5722 -98.6781 265° West 450 518 33,200 1,200 Climbing Fort Worth Center
Sat 11:04:58 AM 32.5722 -98.6781 265° West 450 518 33,200 1,400 Level Fort Worth Center
Sat 11:05:58 AM 32.5644 -98.8258 266° West 450 518 34,600 1,400 Climbing Fort Worth Center
Sat 11:05:58 AM 32.5644 -98.8258 266° West 450 518 34,600 1,100 Level Fort Worth Center
Sat 11:06:58 AM 32.5522 -98.9636 264° West 445 512 35,700 1,100 Climbing Fort Worth Center
Sat 11:06:58 AM 32.5522 -98.9636 264° West 445 512 35,700 300 Level Fort Worth Center
Sat 11:07:58 AM 32.5422 -99.1064 265° West 440 506 36,000 300 Climbing Fort Worth Center
Sat 11:07:58 AM 32.5422 -99.1064 265° West 440 506 36,000  Level Fort Worth Center
Sat 11:08:58 AM 32.5297 -99.2492 264° West 440 506 36,000  Level Fort Worth Center
Sat 11:08:58 AM 32.5297 -99.2492 264° West 440 506 36,000  Level Fort Worth Center
Sat 11:09:58 AM 32.5169 -99.3942 264° West 440 506 36,000  Level Fort Worth Center
Sat 11:09:58 AM 32.5169 -99.3942 264° West 440 506 36,000  Level Fort Worth Center
Sat 11:10:58 AM 32.5064 -99.5417 265° West 440 506 36,000  Level Fort Worth Center
Sat 11:10:58 AM 32.5064 -99.5417 265° West 440 506 36,000  Level Fort Worth Center
Sat 11:11:58 AM 32.4933 -99.6844 264° West 440 506 36,000  Level Fort Worth Center
Sat 11:11:58 AM 32.4933 -99.6844 264° West 440 506 36,000  Level Fort Worth Center
Sat 11:12:58 AM 32.4781 -99.8292 263° West 445 512 36,000  Level Fort Worth Center
Sat 11:12:58 AM 32.4781 -99.8292 263° West 445 512 36,000  Level Fort Worth Center
Sat 11:13:58 AM 32.4669 -99.9767 265° West 445 512 36,000  Level Fort Worth Center
Sat 11:13:58 AM 32.4669 -99.9767 265° West 445 512 36,000  Level Fort Worth Center
Sat 11:14:58 AM 32.4531 -100.1339 264° West 445 512 36,000  Level Fort Worth Center
Sat 11:14:58 AM 32.4531 -100.1339 264° West 445 512 36,000  Level Fort Worth Center
Sat 11:15:58 AM 32.4414 -100.2811 265° West 445 512 36,000  Level Fort Worth Center
Sat 11:15:58 AM 32.4414 -100.2811 265° West 445 512 36,000  Level Fort Worth Center
Sat 11:16:58 AM 32.4278 -100.4233 264° West 445 512 36,000  Level Fort Worth Center
Sat 11:16:58 AM 32.4278 -100.4233 264° West 445 512 36,000  Level Fort Worth Center
Sat 11:17:58 AM 32.4158 -100.5683 264° West 445 512 36,000  Level Fort Worth Center
Sat 11:17:58 AM 32.4158 -100.5683 264° West 445 512 36,000  Level Fort Worth Center
Sat 11:18:58 AM 32.4017 -100.7153 264° West 445 512 36,000  Level Fort Worth Center
Sat 11:18:58 AM 32.4017 -100.7153 264° West 445 512 36,000  Level Fort Worth Center
Sat 11:19:58 AM 32.3872 -100.8575 263° West 445 512 36,000  Level Fort Worth Center
Sat 11:19:58 AM 32.3872 -100.8575 263° West 445 512 36,000  Level Fort Worth Center
Sat 11:25:42 AM 32.3050 -101.6831 263° West 445 512 36,000  Level Albuquerque Center
Sat 11:26:44 AM 32.2889 -101.8286 263° West 446 513 36,000  Level Albuquerque Center
Sat 11:27:46 AM 32.2728 -101.9742 263° West 447 514 36,000  Level Albuquerque Center
Sat 11:28:48 AM 32.2561 -102.1208 262° West 448 516 36,000  Level Albuquerque Center
Sat 11:29:58 AM 32.2347 -102.3081 262° West 445 512 36,000  Level Fort Worth Center
Sat 11:30:58 AM 32.2186 -102.4544 263° West 450 518 36,000  Level Fort Worth Center
Sat 11:31:58 AM 32.2022 -102.6008 263° West 450 518 36,000  Level Fort Worth Center
Sat 11:32:58 AM 32.1878 -102.7472 263° West 455 524 36,000  Level Fort Worth Center
Sat 11:33:57 AM 32.1711 -102.8875 262° West 448 516 36,000  Level Albuquerque Center
Sat 11:34:59 AM 32.1542 -103.0325 262° West 446 513 36,000  Level Albuquerque Center
Sat 11:36:01 AM 32.1367 -103.1783 262° West 447 514 36,000  Level Albuquerque Center
Sat 11:37:03 AM 32.1200 -103.3228 262° West 447 514 36,000  Level Albuquerque Center
Sat 11:38:05 AM 32.1022 -103.4664 262° West 444 511 36,000  Level Albuquerque Center
Sat 11:39:07 AM 32.0842 -103.6111 262° West 445 512 36,000  Level Albuquerque Center
Sat 11:40:09 AM 32.0658 -103.7553 262° West 444 511 36,000  Level Albuquerque Center
Sat 11:41:11 AM 32.0486 -103.9292 263° West 446 513 36,000  Level Albuquerque Center
Sat 11:42:12 AM 32.0308 -104.0722 262° West 445 512 36,000 -195 Level Albuquerque Center
Sat 11:43:14 AM 32.0131 -104.2172 262° West 447 514 35,600 -677 Descending Albuquerque Center
Sat 11:44:16 AM 31.9953 -104.3592 262° West 444 511 34,600 -968 Descending Albuquerque Center
Sat 11:45:18 AM 31.9778 -104.5025 262° West 443 510 33,600 -1,122 Descending Albuquerque Center
Sat 11:46:19 AM 31.9653 -104.6439 264° West 438 504 32,300 -2,439 Descending Albuquerque Center
Sat 11:47:21 AM 31.9444 -104.8186 262° West 451 519 28,600 -2,952 Descending Albuquerque Center
Sat 11:48:23 AM 31.9308 -104.9633 264° West 451 519 26,200 -2,323 Descending Albuquerque Center
Sat 11:49:25 AM 31.9158 -105.1014 263° West 434 499 23,800 -2,293 Descending Albuquerque Center
Sat 11:50:26 AM 31.9022 -105.2342 263° West 417 480 21,500 -2,244 Descending Albuquerque Center
Sat 11:51:28 AM 31.8872 -105.3672 262° West 413 475 19,200 -2,177 Descending Albuquerque Center
Sat 11:52:30 AM 31.8739 -105.4936 263° West 393 452 17,000 -2,613 Descending Albuquerque Center
Sat 11:53:32 AM 31.8736 -105.6375 270° West 371 427 13,800 -2,537 Descending Albuquerque Center
Sat 11:54:33 AM 31.8692 -105.7600 268° West 374 430 11,800 -1,561 Descending Albuquerque Center
Sat 11:55:35 AM 31.8325 -105.8614 247° West 338 389 10,600 -968 Descending Albuquerque Center
Sat 11:56:37 AM 31.8022 -105.9528 249° West 307 353 9,800 -1,016 Descending Albuquerque Center
Sat 11:57:39 AM 31.7828 -106.0400 255° West 282 325 8,500 -1,065 Descending Albuquerque Center
Sat 11:58:41 AM 31.7675 -106.1322 259° West 288 331 7,600 -488 Descending Albuquerque Center
Sat 11:59:42 AM 31.7575 -106.2392 264° West 260 299 7,500 -155 Descending Albuquerque Center
Sat 12:00:37 PM 31.7544 -106.3047 267° West 235 270 7,300 -629 Descending Albuquerque Center
Sat 12:01:46 PM 31.7531 -106.3769 269° West 194 223 6,200 -687 Descending Albuquerque Center
Sat 12:02:48 PM 31.7519 -106.4339 269° West 177 204 5,800 -903 Descending Albuquerque Center
Sat 12:03:39 PM 31.7847 -106.4247 13° North 160 184 4,500 -927 Descending Albuquerque Center
Sat 12:04:51 PM 31.8169 -106.3767 52° Northeast 153 176 3,900 -500 Descending Albuquerque Center
Sat 12:06:00 PM 31.8072 -106.3764 33° Northeast  Level Estimated
Sat 12:13:00 PM 31.8072 -106.3764 North  Level Estimated
Sat 12:14:00 PM 31.8072 -106.3764 North  Level Estimated
Sat 12:15:00 PM 31.8072 -106.3764 North  Level Estimated
Sat 12:16:00 PM 31.8072 -106.3764 North  Level Estimated

Login

Don't have an account? Register now (free) for customized features, flight alerts, and more!